createdAt,value
2017-12-05T00:00:22.706Z,98.52
2017-12-05T00:01:22.574Z,98.52
2017-12-05T00:02:22.439Z,98.75
2017-12-05T00:03:22.308Z,98.85
2017-12-05T00:04:22.172Z,98.90
2017-12-05T00:05:22.041Z,98.94
2017-12-05T00:06:21.909Z,98.94
2017-12-05T00:07:21.775Z,98.90
2017-12-05T00:08:21.641Z,98.90
2017-12-05T00:09:21.508Z,98.71
2017-12-05T00:10:21.374Z,98.61
2017-12-05T00:11:21.244Z,98.99
2017-12-05T00:12:21.111Z,99.65
2017-12-05T00:13:20.976Z,99.41
2017-12-05T00:14:20.846Z,99.32
2017-12-05T00:15:20.712Z,99.46
2017-12-05T00:16:20.588Z,99.18
2017-12-05T00:17:20.446Z,99.08
2017-12-05T00:18:20.311Z,99.04
2017-12-05T00:19:20.180Z,99.13
2017-12-05T00:20:20.048Z,99.22
2017-12-05T00:21:19.913Z,99.04
2017-12-05T00:22:19.786Z,98.61
2017-12-05T00:23:19.649Z,98.52
2017-12-05T00:24:19.517Z,98.61
2017-12-05T00:25:19.382Z,98.66
2017-12-05T00:26:19.247Z,98.90
2017-12-05T00:27:19.118Z,99.13
2017-12-05T00:28:18.985Z,99.08
2017-12-05T00:29:18.851Z,98.80
2017-12-05T00:30:18.718Z,98.80
2017-12-05T00:31:18.586Z,98.10
2017-12-05T00:32:18.452Z,98.38
2017-12-05T00:33:18.320Z,98.28
2017-12-05T00:34:18.193Z,97.95
2017-12-05T00:35:18.053Z,98.90
2017-12-05T00:36:17.921Z,99.08
2017-12-05T00:37:17.788Z,98.90
2017-12-05T00:38:17.657Z,98.80
2017-12-05T00:39:17.522Z,99.27
2017-12-05T00:40:17.392Z,99.18
2017-12-05T00:41:17.258Z,99.55
2017-12-05T00:42:17.125Z,99.55
2017-12-05T00:43:16.996Z,99.55
2017-12-05T00:44:16.858Z,99.55
2017-12-05T00:45:16.727Z,99.27
2017-12-05T00:46:16.591Z,99.46
2017-12-05T00:47:16.466Z,99.55
2017-12-05T00:48:16.327Z,99.18
2017-12-05T00:49:16.194Z,99.27
2017-12-05T00:50:16.060Z,99.27
2017-12-05T00:51:15.948Z,99.27
2017-12-05T00:52:15.794Z,99.08
2017-12-05T00:53:15.663Z,99.32
2017-12-05T00:54:15.529Z,99.41
2017-12-05T00:55:15.396Z,99.37
2017-12-05T00:56:15.267Z,99.32
2017-12-05T00:57:15.129Z,99.51
2017-12-05T00:58:14.995Z,98.85
2017-12-05T00:59:14.864Z,98.85
2017-12-05T01:00:14.731Z,99.04
2017-12-05T01:01:14.596Z,98.10
2017-12-05T01:02:14.463Z,98.23
2017-12-05T01:03:14.336Z,98.42
2017-12-05T01:04:14.207Z,98.42
2017-12-05T01:05:14.116Z,98.47
2017-12-05T01:06:13.934Z,98.28
2017-12-05T01:07:13.808Z,99.18
2017-12-05T01:08:13.666Z,99.13
2017-12-05T01:09:13.536Z,98.90
2017-12-05T01:10:13.402Z,98.38
2017-12-05T01:11:13.269Z,98.42
2017-12-05T01:12:13.136Z,98.99
2017-12-05T01:13:13.002Z,98.90
2017-12-05T01:14:12.869Z,98.80
2017-12-05T01:15:12.744Z,99.08
2017-12-05T01:16:12.603Z,99.08
2017-12-05T01:17:12.472Z,98.61
2017-12-05T01:18:12.340Z,98.80
2017-12-05T01:19:12.206Z,98.61
2017-12-05T01:20:12.075Z,98.52
2017-12-05T01:21:11.944Z,98.61
2017-12-05T01:22:11.806Z,98.80
2017-12-05T01:23:11.674Z,98.71
2017-12-05T01:24:11.549Z,98.99
2017-12-05T01:25:11.407Z,98.99
2017-12-05T01:26:11.273Z,98.80
2017-12-05T01:27:11.143Z,99.13
2017-12-05T01:28:11.009Z,98.80
2017-12-05T01:29:10.874Z,98.52
2017-12-05T01:30:10.744Z,98.99
2017-12-05T01:31:10.609Z,99.37
2017-12-05T01:32:10.479Z,99.27
2017-12-05T01:33:10.343Z,99.18
2017-12-05T01:34:10.214Z,98.99
2017-12-05T01:35:10.076Z,99.32
2017-12-05T01:36:09.946Z,99.79
2017-12-05T01:37:09.810Z,99.74
2017-12-05T01:38:09.678Z,99.93
2017-12-05T01:39:09.545Z,99.70
2017-12-05T01:40:09.410Z,99.88
2017-12-05T01:41:09.287Z,99.70
2017-12-05T01:42:09.144Z,99.55
2017-12-05T01:43:09.010Z,98.99
2017-12-05T01:44:08.879Z,99.22
2017-12-05T01:45:08.745Z,98.94
2017-12-05T01:46:08.611Z,98.75
2017-12-05T01:47:08.478Z,98.85
2017-12-05T01:48:08.343Z,98.75
2017-12-05T01:49:08.214Z,98.80
2017-12-05T01:50:08.079Z,98.90
2017-12-05T01:51:07.945Z,98.80
2017-12-05T01:52:07.819Z,98.99
2017-12-05T01:53:07.678Z,98.33
2017-12-05T01:54:07.548Z,97.95
2017-12-05T01:55:07.412Z,98.99
2017-12-05T01:56:07.280Z,98.99
2017-12-05T01:57:07.147Z,98.99
2017-12-05T01:58:07.013Z,98.66
2017-12-05T01:59:06.878Z,99.18
2017-12-05T02:00:06.749Z,98.80
2017-12-05T02:01:06.619Z,98.66
2017-12-05T02:02:06.480Z,99.13
2017-12-05T02:03:06.355Z,98.80
2017-12-05T02:04:06.214Z,98.57
2017-12-05T02:05:06.081Z,99.22
2017-12-05T02:06:05.947Z,98.38
2017-12-05T02:07:05.815Z,98.66
2017-12-05T02:08:05.682Z,98.66
2017-12-05T02:09:05.547Z,98.42
2017-12-05T02:10:05.414Z,98.71
2017-12-05T02:11:05.284Z,98.90
2017-12-05T02:12:05.144Z,98.28
2017-12-05T02:13:05.014Z,98.42
2017-12-05T02:14:04.878Z,98.33
2017-12-05T02:15:04.748Z,98.61
2017-12-05T02:16:04.614Z,98.04
2017-12-05T02:17:04.479Z,98.23
2017-12-05T02:18:04.345Z,98.42
2017-12-05T02:19:04.211Z,97.95
2017-12-05T02:20:04.086Z,98.23
2017-12-05T02:21:03.973Z,98.42
2017-12-05T02:22:03.816Z,98.90
2017-12-05T02:23:03.677Z,98.90
2017-12-05T02:24:03.541Z,98.61
2017-12-05T02:25:03.409Z,99.08
2017-12-05T02:26:03.278Z,98.99
2017-12-05T02:27:03.143Z,98.04
2017-12-05T02:28:03.010Z,98.23
2017-12-05T02:29:02.879Z,98.23
2017-12-05T02:30:02.745Z,98.42
2017-12-05T02:31:02.611Z,98.52
2017-12-05T02:32:02.478Z,98.52
2017-12-05T02:33:02.345Z,98.23
2017-12-05T02:34:02.211Z,98.23
2017-12-05T02:35:02.076Z,98.42
2017-12-05T02:36:01.943Z,98.04
2017-12-05T02:37:01.810Z,97.85
2017-12-05T02:38:01.678Z,97.95
2017-12-05T02:39:01.547Z,97.85
2017-12-05T02:40:01.411Z,97.76
2017-12-05T02:41:01.278Z,98.33
2017-12-05T02:42:01.143Z,97.85
2017-12-05T02:43:01.010Z,98.23
2017-12-05T02:44:00.877Z,98.04
2017-12-05T02:45:00.743Z,97.95
2017-12-05T02:46:00.611Z,98.33
2017-12-05T02:47:00.482Z,98.14
2017-12-05T02:48:00.347Z,98.23
2017-12-05T02:49:00.209Z,98.23
2017-12-05T02:50:00.079Z,98.14
2017-12-05T02:50:59.944Z,98.14
2017-12-05T02:51:59.820Z,98.33
2017-12-05T02:52:59.677Z,98.80
2017-12-05T02:53:59.546Z,99.08
2017-12-05T02:54:59.411Z,98.99
2017-12-05T02:55:59.276Z,98.99
2017-12-05T02:56:59.148Z,98.23
2017-12-05T02:57:59.010Z,98.42
2017-12-05T02:58:58.884Z,98.42
2017-12-05T02:59:58.742Z,98.23
2017-12-05T03:00:58.611Z,98.42
2017-12-05T03:01:58.478Z,99.08
2017-12-05T03:02:58.344Z,98.90
2017-12-05T03:03:58.211Z,99.18
2017-12-05T03:04:58.073Z,98.99
2017-12-05T03:05:57.942Z,98.42
2017-12-05T03:06:57.808Z,98.33
2017-12-05T03:07:57.674Z,98.23
2017-12-05T03:08:57.542Z,98.99
2017-12-05T03:09:57.408Z,98.23
2017-12-05T03:10:57.277Z,98.04
2017-12-05T03:11:57.142Z,98.61
2017-12-05T03:12:57.007Z,98.42
2017-12-05T03:13:56.872Z,98.80
2017-12-05T03:14:56.740Z,98.90
2017-12-05T03:15:56.607Z,98.80
2017-12-05T03:16:56.472Z,99.08
2017-12-05T03:17:56.342Z,99.08
2017-12-05T03:18:56.209Z,98.90
2017-12-05T03:19:56.078Z,98.71
2017-12-05T03:20:55.938Z,98.90
2017-12-05T03:21:55.805Z,98.99
2017-12-05T03:22:55.672Z,98.04
2017-12-05T03:23:55.540Z,98.23
2017-12-05T03:24:55.406Z,98.33
2017-12-05T03:25:55.271Z,98.14
2017-12-05T03:26:55.136Z,98.04
2017-12-05T03:27:55.002Z,98.23
2017-12-05T03:28:54.870Z,98.04
2017-12-05T03:29:54.810Z,98.14
2017-12-05T03:30:54.604Z,98.33
2017-12-05T03:31:54.468Z,97.95
2017-12-05T03:32:54.334Z,98.04
2017-12-05T03:33:54.200Z,98.23
2017-12-05T03:34:54.065Z,98.04
2017-12-05T03:35:53.932Z,98.14
2017-12-05T03:36:53.796Z,98.04
2017-12-05T03:37:53.664Z,98.61
2017-12-05T03:38:53.529Z,97.95
2017-12-05T03:39:53.396Z,98.14
2017-12-05T03:40:53.261Z,97.95
2017-12-05T03:41:53.126Z,98.23
2017-12-05T03:42:52.993Z,98.42
2017-12-05T03:43:52.855Z,98.61
2017-12-05T03:44:52.723Z,97.85
2017-12-05T03:45:52.588Z,97.85
2017-12-05T03:46:52.452Z,97.67
2017-12-05T03:47:52.326Z,98.04
2017-12-05T03:48:52.186Z,98.37
2017-12-05T03:49:52.064Z,98.42
2017-12-05T03:50:51.918Z,98.04
2017-12-05T03:51:51.782Z,98.42
2017-12-05T03:52:51.650Z,97.76
2017-12-05T03:53:51.513Z,97.95
2017-12-05T03:54:51.376Z,97.76
2017-12-05T03:55:51.241Z,97.85
2017-12-05T03:56:51.109Z,98.18
2017-12-05T03:57:50.976Z,98.23
2017-12-05T03:58:50.837Z,98.23
2017-12-05T03:59:50.704Z,98.23
2017-12-05T04:00:50.571Z,97.67
2017-12-05T04:01:50.432Z,97.95
2017-12-05T04:02:50.300Z,97.90
2017-12-05T04:03:50.167Z,97.90
2017-12-05T04:04:50.031Z,98.18
2017-12-05T04:05:49.897Z,97.71
2017-12-05T04:06:49.762Z,97.71
2017-12-05T04:07:49.623Z,98.09
2017-12-05T04:08:49.492Z,97.99
2017-12-05T04:09:49.357Z,98.18
2017-12-05T04:10:49.224Z,98.09
2017-12-05T04:11:49.087Z,97.80
2017-12-05T04:12:48.954Z,97.90
2017-12-05T04:13:48.816Z,98.37
2017-12-05T04:14:48.683Z,97.99
2017-12-05T04:15:48.549Z,98.37
2017-12-05T04:16:48.412Z,97.90
2017-12-05T04:17:48.277Z,97.90
2017-12-05T04:18:48.143Z,97.67
2017-12-05T04:19:48.007Z,97.24
2017-12-05T04:20:47.870Z,97.24
2017-12-05T04:21:47.735Z,97.24
2017-12-05T04:22:47.601Z,96.95
2017-12-05T04:23:47.468Z,97.43
2017-12-05T04:24:47.339Z,96.95
2017-12-05T04:25:47.196Z,97.14
2017-12-05T04:26:47.062Z,97.61
2017-12-05T04:27:46.925Z,97.61
2017-12-05T04:28:46.791Z,97.61
2017-12-05T04:29:46.658Z,97.43
2017-12-05T04:30:46.528Z,97.24
2017-12-05T04:31:46.402Z,97.24
2017-12-05T04:32:46.255Z,97.71
2017-12-05T04:33:46.115Z,97.71
2017-12-05T04:34:45.980Z,97.90
2017-12-05T04:35:45.850Z,97.71
2017-12-05T04:36:45.710Z,97.43
2017-12-05T04:37:45.577Z,97.80
2017-12-05T04:38:45.438Z,97.24
2017-12-05T04:39:45.305Z,97.24
2017-12-05T04:40:45.169Z,97.14
2017-12-05T04:41:45.035Z,97.71
2017-12-05T04:42:44.899Z,97.99
2017-12-05T04:43:44.765Z,97.24
2017-12-05T04:44:44.629Z,97.43
2017-12-05T04:45:44.493Z,97.33
2017-12-05T04:46:44.364Z,97.61
2017-12-05T04:47:44.249Z,97.05
2017-12-05T04:48:44.088Z,97.14
2017-12-05T04:49:43.954Z,97.24
2017-12-05T04:50:43.817Z,97.14
2017-12-05T04:51:43.685Z,97.05
2017-12-05T04:52:43.548Z,96.48
2017-12-05T04:53:43.412Z,97.05
2017-12-05T04:54:43.277Z,97.05
2017-12-05T04:55:43.142Z,96.95
2017-12-05T04:56:43.007Z,97.14
2017-12-05T04:57:42.873Z,96.39
2017-12-05T04:58:42.738Z,96.77
2017-12-05T04:59:42.599Z,96.39
2017-12-05T05:00:42.464Z,96.86
2017-12-05T05:01:42.331Z,96.58
2017-12-05T05:02:42.196Z,96.86
2017-12-05T05:03:42.061Z,96.67
2017-12-05T05:04:41.929Z,96.48
2017-12-05T05:05:41.790Z,96.77
2017-12-05T05:06:41.662Z,97.24
2017-12-05T05:07:41.518Z,96.86
2017-12-05T05:08:41.385Z,96.77
2017-12-05T05:09:41.244Z,96.77
2017-12-05T05:10:41.111Z,97.05
2017-12-05T05:11:40.978Z,96.30
2017-12-05T05:12:40.840Z,96.39
2017-12-05T05:13:40.706Z,96.67
2017-12-05T05:14:40.572Z,96.67
2017-12-05T05:15:40.437Z,96.86
2017-12-05T05:16:40.300Z,95.92
2017-12-05T05:17:40.165Z,96.20
2017-12-05T05:18:40.028Z,95.07
2017-12-05T05:19:39.893Z,95.83
2017-12-05T05:20:39.771Z,95.54
2017-12-05T05:21:39.621Z,95.73
2017-12-05T05:22:39.488Z,95.73
2017-12-05T05:23:39.358Z,95.83
2017-12-05T05:24:39.215Z,95.83
2017-12-05T05:25:39.083Z,95.83
2017-12-05T05:26:38.947Z,96.01
2017-12-05T05:27:38.809Z,96.30
2017-12-05T05:28:38.675Z,96.11
2017-12-05T05:29:38.541Z,95.26
2017-12-05T05:30:38.406Z,95.73
2017-12-05T05:31:38.287Z,95.07
2017-12-05T05:32:38.143Z,96.01
2017-12-05T05:33:37.998Z,96.48
2017-12-05T05:34:37.866Z,97.05
2017-12-05T05:35:37.730Z,96.95
2017-12-05T05:36:37.592Z,96.86
2017-12-05T05:37:37.457Z,96.86
2017-12-05T05:38:37.321Z,96.77
2017-12-05T05:39:37.190Z,97.05
2017-12-05T05:40:37.052Z,97.14
2017-12-05T05:41:36.914Z,97.24
2017-12-05T05:42:36.780Z,97.14
2017-12-05T05:43:36.643Z,96.86
2017-12-05T05:44:36.508Z,96.86
2017-12-05T05:45:36.375Z,96.86
2017-12-05T05:46:36.239Z,96.67
2017-12-05T05:47:36.103Z,96.77
2017-12-05T05:48:35.973Z,96.86
2017-12-05T05:49:35.838Z,96.77
2017-12-05T05:50:35.698Z,96.67
2017-12-05T05:51:35.564Z,96.95
2017-12-05T05:52:35.426Z,96.77
2017-12-05T05:53:35.297Z,96.67
2017-12-05T05:54:35.160Z,96.67
2017-12-05T05:55:35.023Z,96.67
2017-12-05T05:56:34.894Z,96.77
2017-12-05T05:57:34.752Z,96.86
2017-12-05T05:58:34.614Z,96.86
2017-12-05T05:59:34.479Z,96.48
2017-12-05T06:00:34.343Z,96.77
2017-12-05T06:01:34.207Z,96.58
2017-12-05T06:02:34.072Z,96.58
2017-12-05T06:03:33.938Z,96.67
2017-12-05T06:04:33.806Z,96.58
2017-12-05T06:05:33.666Z,96.39
2017-12-05T06:06:33.528Z,96.48
2017-12-05T06:07:33.396Z,96.39
2017-12-05T06:08:33.257Z,95.92
2017-12-05T06:09:33.123Z,96.20
2017-12-05T06:10:32.987Z,96.48
2017-12-05T06:11:32.849Z,96.67
2017-12-05T06:12:32.714Z,96.01
2017-12-05T06:13:32.581Z,96.39
2017-12-05T06:14:32.445Z,96.30
2017-12-05T06:15:32.310Z,96.67
2017-12-05T06:16:32.173Z,96.67
2017-12-05T06:17:32.039Z,96.95
2017-12-05T06:18:31.901Z,96.77
2017-12-05T06:19:31.767Z,96.48
2017-12-05T06:20:31.640Z,96.86
2017-12-05T06:21:31.499Z,96.86
2017-12-05T06:22:31.360Z,96.95
2017-12-05T06:23:31.230Z,97.05
2017-12-05T06:24:31.085Z,97.05
2017-12-05T06:25:30.957Z,96.95
2017-12-05T06:26:30.815Z,96.67
2017-12-05T06:27:30.680Z,96.20
2017-12-05T06:28:30.550Z,96.39
2017-12-05T06:29:30.409Z,96.58
2017-12-05T06:30:30.272Z,96.30
2017-12-05T06:31:30.140Z,96.39
2017-12-05T06:32:30.005Z,96.48
2017-12-05T06:33:29.876Z,96.48
2017-12-05T06:34:29.729Z,96.20
2017-12-05T06:35:29.593Z,96.58
2017-12-05T06:36:29.457Z,96.67
2017-12-05T06:37:29.325Z,96.67
2017-12-05T06:38:29.184Z,96.67
2017-12-05T06:39:29.054Z,96.67
2017-12-05T06:40:28.912Z,96.86
2017-12-05T06:41:28.782Z,96.39
2017-12-05T06:42:28.643Z,96.67
2017-12-05T06:43:28.511Z,96.11
2017-12-05T06:44:28.375Z,96.48
2017-12-05T06:45:28.237Z,96.48
2017-12-05T06:46:28.100Z,96.48
2017-12-05T06:47:27.964Z,96.20
2017-12-05T06:48:27.828Z,96.95
2017-12-05T06:49:27.691Z,96.77
2017-12-05T06:50:27.558Z,96.20
2017-12-05T06:51:27.421Z,96.01
2017-12-05T06:52:27.286Z,95.83
2017-12-05T06:53:27.151Z,96.20
2017-12-05T06:54:27.016Z,96.11
2017-12-05T06:55:26.878Z,96.20
2017-12-05T06:56:26.740Z,95.92
2017-12-05T06:57:26.606Z,95.83
2017-12-05T06:58:26.472Z,95.83
2017-12-05T06:59:26.334Z,96.20
2017-12-05T07:00:26.201Z,96.48
2017-12-05T07:01:26.070Z,96.39
2017-12-05T07:02:25.933Z,95.83
2017-12-05T07:03:25.791Z,95.83
2017-12-05T07:04:25.656Z,96.01
2017-12-05T07:05:25.521Z,95.73
2017-12-05T07:06:25.383Z,95.73
2017-12-05T07:07:25.249Z,95.83
2017-12-05T07:08:25.113Z,95.83
2017-12-05T07:09:24.976Z,96.01
2017-12-05T07:10:24.838Z,96.30
2017-12-05T07:11:24.709Z,96.30
2017-12-05T07:12:24.569Z,95.83
2017-12-05T07:13:24.431Z,95.92
2017-12-05T07:14:24.295Z,95.92
2017-12-05T07:15:24.160Z,95.92
2017-12-05T07:16:24.025Z,95.73
2017-12-05T07:17:24.019Z,95.92
2017-12-05T07:18:23.756Z,95.64
2017-12-05T07:19:23.618Z,95.92
2017-12-05T07:20:23.481Z,95.83
2017-12-05T07:21:23.341Z,95.73
2017-12-05T07:22:23.215Z,95.45
2017-12-05T07:23:23.079Z,95.26
2017-12-05T07:24:22.936Z,95.17
2017-12-05T07:25:22.801Z,96.11
2017-12-05T07:26:22.667Z,96.11
2017-12-05T07:27:22.530Z,96.20
2017-12-05T07:28:22.446Z,95.64
2017-12-05T07:29:22.258Z,96.11
2017-12-05T07:30:22.134Z,95.73
2017-12-05T07:31:21.985Z,96.01
2017-12-05T07:32:21.850Z,96.01
2017-12-05T07:33:21.715Z,95.83
2017-12-05T07:34:21.577Z,95.83
2017-12-05T07:35:21.444Z,95.92
2017-12-05T07:36:21.307Z,95.83
2017-12-05T07:37:21.170Z,95.83
2017-12-05T07:38:21.034Z,95.64
2017-12-05T07:39:20.900Z,95.64
2017-12-05T07:40:20.765Z,95.73
2017-12-05T07:41:20.644Z,95.83
2017-12-05T07:42:20.491Z,95.83
2017-12-05T07:43:20.356Z,95.73
2017-12-05T07:44:20.218Z,95.73
2017-12-05T07:45:20.082Z,96.11
2017-12-05T07:46:19.948Z,95.17
2017-12-05T07:47:19.812Z,95.64
2017-12-05T07:48:19.675Z,95.36
2017-12-05T07:49:19.544Z,95.26
2017-12-05T07:50:19.402Z,96.11
2017-12-05T07:51:19.271Z,96.11
2017-12-05T07:52:19.158Z,96.01
2017-12-05T07:53:19.030Z,96.01
2017-12-05T07:54:18.863Z,96.01
2017-12-05T07:55:18.743Z,95.92
2017-12-05T07:56:18.586Z,95.73
2017-12-05T07:57:18.453Z,95.83
2017-12-05T07:58:18.317Z,96.11
2017-12-05T07:59:18.182Z,96.11
2017-12-05T08:00:18.047Z,95.92
2017-12-05T08:01:17.910Z,95.92
2017-12-05T08:02:17.774Z,96.11
2017-12-05T08:03:17.648Z,96.11
2017-12-05T08:04:17.500Z,96.11
2017-12-05T08:05:17.370Z,95.45
2017-12-05T08:06:17.228Z,95.26
2017-12-05T08:07:17.096Z,94.98
2017-12-05T08:08:16.961Z,95.26
2017-12-05T08:09:16.823Z,95.17
2017-12-05T08:10:16.688Z,96.01
2017-12-05T08:11:16.552Z,95.26
2017-12-05T08:12:16.416Z,96.30
2017-12-05T08:13:16.279Z,95.17
2017-12-05T08:14:16.145Z,95.26
2017-12-05T08:15:16.014Z,95.07
2017-12-05T08:16:15.873Z,95.64
2017-12-05T08:17:15.737Z,95.17
2017-12-05T08:18:15.604Z,95.17
2017-12-05T08:19:15.470Z,95.17
2017-12-05T08:20:15.332Z,95.07
2017-12-05T08:21:15.195Z,95.17
2017-12-05T08:22:15.059Z,95.17
2017-12-05T08:23:14.921Z,95.07
2017-12-05T08:24:14.786Z,95.26
2017-12-05T08:25:14.654Z,95.45
2017-12-05T08:26:14.523Z,95.07
2017-12-05T08:27:14.381Z,94.79
2017-12-05T08:28:14.253Z,94.98
2017-12-05T08:29:14.109Z,95.07
2017-12-05T08:30:13.972Z,96.30
2017-12-05T08:31:13.839Z,95.17
2017-12-05T08:32:13.700Z,95.07
2017-12-05T08:33:13.562Z,95.26
2017-12-05T08:34:13.430Z,95.26
2017-12-05T08:35:13.293Z,95.36
2017-12-05T08:36:13.159Z,94.88
2017-12-05T08:37:13.024Z,95.26
2017-12-05T08:38:12.888Z,95.92
2017-12-05T08:39:12.753Z,96.11
2017-12-05T08:40:12.619Z,95.83
2017-12-05T08:41:12.482Z,96.11
2017-12-05T08:42:12.346Z,95.17
2017-12-05T08:43:12.209Z,95.83
2017-12-05T08:44:12.091Z,96.01
2017-12-05T08:45:11.937Z,95.73
2017-12-05T08:46:11.803Z,95.73
2017-12-05T08:47:11.667Z,95.92
2017-12-05T08:48:11.533Z,96.11
2017-12-05T08:49:11.398Z,95.17
2017-12-05T08:50:11.262Z,95.26
2017-12-05T08:51:11.124Z,95.26
2017-12-05T08:52:10.991Z,95.26
2017-12-05T08:53:10.857Z,95.26
2017-12-05T08:54:10.721Z,95.26
2017-12-05T08:55:10.586Z,95.54
2017-12-05T08:56:10.447Z,95.36
2017-12-05T08:57:10.311Z,95.92
2017-12-05T08:58:10.180Z,95.64
2017-12-05T08:59:10.043Z,96.11
2017-12-05T09:00:09.925Z,95.17
2017-12-05T09:01:09.774Z,95.17
2017-12-05T09:02:09.633Z,95.73
2017-12-05T09:03:09.498Z,95.92
2017-12-05T09:04:09.363Z,96.01
2017-12-05T09:05:09.227Z,96.11
2017-12-05T09:06:09.094Z,96.20
2017-12-05T09:07:08.959Z,96.01
2017-12-05T09:08:08.822Z,95.64
2017-12-05T09:09:08.687Z,96.01
2017-12-05T09:10:08.553Z,95.17
2017-12-05T09:11:08.417Z,96.01
2017-12-05T09:12:08.281Z,95.26
2017-12-05T09:13:08.145Z,95.17
2017-12-05T09:14:08.011Z,95.17
2017-12-05T09:15:07.875Z,95.45
2017-12-05T09:16:07.742Z,95.92
2017-12-05T09:17:07.604Z,95.17
2017-12-05T09:18:07.469Z,95.26
2017-12-05T09:19:07.334Z,95.07
2017-12-05T09:20:07.196Z,94.32
2017-12-05T09:21:07.060Z,94.03
2017-12-05T09:22:06.928Z,94.13
2017-12-05T09:23:06.792Z,94.03
2017-12-05T09:24:06.657Z,93.75
2017-12-05T09:25:06.526Z,92.99
2017-12-05T09:26:06.386Z,92.00
2017-12-05T09:27:06.253Z,91.16
2017-12-05T09:28:06.117Z,90.78
2017-12-05T09:29:05.982Z,89.83
2017-12-05T09:30:05.850Z,89.17
2017-12-05T09:31:05.727Z,88.60
2017-12-05T09:32:05.579Z,87.76
2017-12-05T09:33:05.445Z,87.24
2017-12-05T09:34:05.309Z,86.10
2017-12-05T09:35:05.177Z,85.82
2017-12-05T09:36:05.052Z,85.06
2017-12-05T09:37:04.909Z,84.50
2017-12-05T09:38:04.776Z,85.25
2017-12-05T09:39:04.643Z,84.88
2017-12-05T09:40:04.507Z,83.40
2017-12-05T09:41:04.376Z,83.88
2017-12-05T09:42:04.284Z,83.69
2017-12-05T09:43:04.122Z,82.65
2017-12-05T09:44:04.008Z,81.61
2017-12-05T09:45:03.849Z,80.48
2017-12-05T09:46:03.710Z,79.57
2017-12-05T09:47:03.580Z,79.38
2017-12-05T09:48:03.445Z,77.69
2017-12-05T09:49:03.312Z,77.21
2017-12-05T09:50:03.182Z,77.12
2017-12-05T09:51:03.054Z,77.59
2017-12-05T09:52:02.949Z,77.31
2017-12-05T09:53:02.803Z,76.36
2017-12-05T09:54:02.655Z,76.17
2017-12-05T09:55:02.571Z,75.70
2017-12-05T09:56:02.391Z,75.04
2017-12-05T09:57:02.260Z,73.37
2017-12-05T09:58:02.135Z,72.90
2017-12-05T09:59:02.000Z,72.33
2017-12-05T10:00:01.917Z,72.24
2017-12-05T10:01:01.789Z,73.18
2017-12-05T10:02:01.610Z,72.14
2017-12-05T10:03:01.526Z,72.05
2017-12-05T10:04:01.345Z,71.95
2017-12-05T10:05:01.262Z,71.42
2017-12-05T10:06:01.087Z,70.57
2017-12-05T10:07:01.003Z,70.20
2017-12-05T10:08:00.886Z,69.19
2017-12-05T10:09:00.697Z,67.58
2017-12-05T10:10:00.617Z,67.11
2017-12-05T10:11:00.440Z,65.81
2017-12-05T10:12:00.311Z,64.49
2017-12-05T10:13:00.239Z,64.04
2017-12-05T10:14:00.053Z,63.85
2017-12-05T10:14:59.925Z,62.18
2017-12-05T10:15:59.817Z,60.47
2017-12-05T10:16:59.677Z,59.34
2017-12-05T10:17:59.550Z,58.42
2017-12-05T10:18:59.469Z,57.57
2017-12-05T10:19:59.285Z,56.62
2017-12-05T10:20:59.161Z,56.27
2017-12-05T10:21:59.034Z,55.48
2017-12-05T10:22:58.957Z,54.53
2017-12-05T10:23:58.836Z,54.72
2017-12-05T10:24:58.655Z,54.63
2017-12-05T10:25:58.529Z,53.39
2017-12-05T10:26:58.405Z,53.49
2017-12-05T10:27:58.321Z,53.87
2017-12-05T10:28:58.151Z,53.75
2017-12-05T10:29:58.025Z,54.03
2017-12-05T10:30:57.899Z,53.84
2017-12-05T10:31:57.772Z,54.22
2017-12-05T10:32:57.684Z,55.45
2017-12-05T10:33:59.466Z,55.80
2017-12-05T10:34:57.394Z,56.94
2017-12-05T10:35:57.318Z,57.04
2017-12-05T10:36:57.190Z,57.32
2017-12-05T10:37:57.067Z,57.60
2017-12-05T10:38:56.943Z,58.55
2017-12-05T10:39:56.767Z,59.31
2017-12-05T10:40:56.679Z,59.22
2017-12-05T10:41:56.567Z,59.31
2017-12-05T10:42:56.431Z,59.25
2017-12-05T10:43:56.371Z,57.92
2017-12-05T10:44:56.135Z,57.64
2017-12-05T10:45:56.005Z,57.35
2017-12-05T10:46:55.882Z,56.66
2017-12-05T10:47:55.759Z,56.94
2017-12-05T10:48:55.682Z,59.12
2017-12-05T10:49:55.524Z,59.41
2017-12-05T10:50:55.392Z,59.47
2017-12-05T10:51:55.248Z,60.22
2017-12-05T10:52:55.121Z,62.12
2017-12-05T10:53:55.037Z,63.35
2017-12-05T10:54:54.866Z,62.78
2017-12-05T10:55:54.780Z,63.16
2017-12-05T10:56:54.661Z,63.64
2017-12-05T10:57:54.488Z,64.01
2017-12-05T10:58:54.415Z,65.53
2017-12-05T10:59:54.235Z,65.53
2017-12-05T11:00:54.106Z,65.91
2017-12-05T11:01:53.978Z,64.58
2017-12-05T11:02:53.855Z,64.77
2017-12-05T11:03:53.763Z,64.58
2017-12-05T11:04:53.638Z,65.25
2017-12-05T11:05:53.512Z,65.63
2017-12-05T11:06:53.384Z,65.66
2017-12-05T11:07:53.210Z,65.28
2017-12-05T11:08:53.132Z,64.14
2017-12-05T11:09:53.010Z,63.64
2017-12-05T11:10:52.832Z,63.64
2017-12-05T11:11:52.742Z,64.39
2017-12-05T11:12:52.623Z,63.45
2017-12-05T11:13:52.490Z,63.82
2017-12-05T11:14:52.367Z,64.04
2017-12-05T11:15:52.889Z,64.30
2017-12-05T11:16:52.065Z,64.49
2017-12-05T11:17:51.996Z,64.90
2017-12-05T11:18:51.810Z,63.95
2017-12-05T11:19:51.740Z,63.92
2017-12-05T11:20:51.595Z,64.01
2017-12-05T11:21:51.430Z,64.49
2017-12-05T11:22:51.356Z,65.06
2017-12-05T11:23:51.173Z,65.72
2017-12-05T11:24:51.091Z,65.81
2017-12-05T11:25:50.972Z,65.81
2017-12-05T11:26:50.794Z,66.67
2017-12-05T11:27:50.663Z,67.05
2017-12-05T11:28:50.583Z,67.33
2017-12-05T11:29:50.411Z,66.86
2017-12-05T11:30:50.339Z,67.01
2017-12-05T11:31:50.204Z,66.92
2017-12-05T11:32:50.025Z,67.39
2017-12-05T11:33:49.897Z,67.77
2017-12-05T11:34:49.772Z,67.58
2017-12-05T11:35:49.642Z,67.49
2017-12-05T11:36:49.521Z,67.24
2017-12-05T11:37:49.386Z,66.82
2017-12-05T11:38:49.306Z,66.63
2017-12-05T11:39:49.135Z,67.01
2017-12-05T11:40:49.003Z,66.92
2017-12-05T11:41:48.874Z,66.76
2017-12-05T11:42:48.746Z,66.67
2017-12-05T11:43:48.670Z,66.76
2017-12-05T11:44:48.490Z,66.09
2017-12-05T11:45:48.422Z,65.88
2017-12-05T11:46:48.283Z,65.63
2017-12-05T11:47:48.107Z,64.68
2017-12-05T11:48:47.988Z,64.30
2017-12-05T11:49:47.905Z,65.91
2017-12-05T11:50:47.725Z,66.76
2017-12-05T11:51:47.594Z,67.30
2017-12-05T11:52:47.470Z,68.24
2017-12-05T11:53:47.340Z,68.27
2017-12-05T11:54:47.257Z,68.27
2017-12-05T11:55:47.134Z,68.24
2017-12-05T11:56:46.953Z,68.15
2017-12-05T11:57:46.827Z,68.24
2017-12-05T11:58:46.749Z,68.62
2017-12-05T11:59:46.623Z,69.00
2017-12-05T12:00:46.444Z,69.00
2017-12-05T12:01:46.314Z,69.00
2017-12-05T12:02:46.235Z,69.76
2017-12-05T12:03:46.107Z,69.95
2017-12-05T12:04:45.984Z,69.57
2017-12-05T12:05:45.804Z,69.76
2017-12-05T12:06:45.724Z,69.85
2017-12-05T12:07:45.556Z,69.57
2017-12-05T12:08:45.423Z,69.28
2017-12-05T12:09:45.293Z,69.76
2017-12-05T12:10:45.204Z,70.32
2017-12-05T12:11:45.041Z,69.70
2017-12-05T12:12:44.955Z,68.98
2017-12-05T12:13:44.822Z,68.21
2017-12-05T12:14:44.701Z,67.61
2017-12-05T12:15:44.528Z,67.61
2017-12-05T12:16:44.442Z,67.14
2017-12-05T12:17:44.276Z,67.61
2017-12-05T12:18:44.185Z,68.18
2017-12-05T12:19:44.060Z,69.03
2017-12-05T12:20:43.934Z,68.46
2017-12-05T12:21:43.771Z,68.94
2017-12-05T12:22:43.679Z,69.51
2017-12-05T12:23:43.515Z,68.52
2017-12-05T12:24:43.378Z,69.66
2017-12-05T12:25:43.255Z,69.76
2017-12-05T12:26:43.164Z,70.61
2017-12-05T12:27:43.039Z,71.55
2017-12-05T12:28:42.875Z,71.84
2017-12-05T12:29:42.766Z,71.46
2017-12-05T12:30:42.622Z,70.51
2017-12-05T12:31:42.510Z,70.14
2017-12-05T12:32:42.389Z,69.72
2017-12-05T12:33:42.257Z,70.89
2017-12-05T12:34:42.131Z,71.42
2017-12-05T12:35:42.008Z,71.90
2017-12-05T12:36:41.882Z,72.37
2017-12-05T12:37:41.746Z,73.22
2017-12-05T12:38:41.621Z,73.69
2017-12-05T12:39:41.545Z,73.98
2017-12-05T12:40:41.358Z,74.07
2017-12-05T12:41:41.247Z,74.07
2017-12-05T12:42:41.104Z,73.50
2017-12-05T12:43:40.973Z,73.50
2017-12-05T12:44:40.867Z,73.32
2017-12-05T12:45:40.724Z,73.22
2017-12-05T12:46:40.585Z,74.07
2017-12-05T12:47:40.441Z,74.83
2017-12-05T12:48:40.342Z,75.31
2017-12-05T12:49:40.224Z,75.12
2017-12-05T12:50:40.084Z,75.21